createdAt,value
2023-02-01T00:02:04.603Z,100206.78
2023-02-01T00:04:31.634Z,100214.66
2023-02-01T00:06:58.284Z,100212.00
2023-02-01T00:09:24.944Z,100210.25
2023-02-01T00:11:51.569Z,100199.81
2023-02-01T00:14:18.366Z,100201.53
2023-02-01T00:16:45.070Z,100206.75
2023-02-01T00:19:15.307Z,100199.78
2023-02-01T00:21:42.446Z,100202.38
2023-02-01T00:24:10.426Z,100204.09
2023-02-01T00:26:40.159Z,100207.59
2023-02-01T00:29:12.464Z,100200.59
2023-02-01T00:31:39.176Z,100194.56
2023-02-01T00:34:06.170Z,100211.06
2023-02-01T00:36:33.158Z,100202.38
2023-02-01T00:38:59.776Z,100203.22
2023-02-01T00:41:26.925Z,100207.56
2023-02-01T00:43:53.638Z,100203.22
2023-02-01T00:46:21.080Z,100202.38
2023-02-01T00:48:47.953Z,100196.28
2023-02-01T00:51:20.331Z,100203.22
2023-02-01T00:53:47.248Z,100200.63
2023-02-01T00:56:15.348Z,100211.94
2023-02-01T00:58:45.203Z,100210.19
2023-02-01T01:01:19.631Z,100203.22
2023-02-01T01:03:50.325Z,100201.56
2023-02-01T01:06:20.007Z,100204.13
2023-02-01T01:08:49.431Z,100197.22
2023-02-01T01:11:19.488Z,100205.03
2023-02-01T01:13:50.780Z,100199.81
2023-02-01T01:16:18.977Z,100203.31
2023-02-01T01:18:46.242Z,100213.78
2023-02-01T01:21:14.282Z,100214.66
2023-02-01T01:23:41.235Z,100220.72
2023-02-01T01:26:09.932Z,100217.28
2023-02-01T01:28:36.632Z,100215.50
2023-02-01T01:31:03.980Z,100219.00
2023-02-01T01:33:30.872Z,100213.81
2023-02-01T01:35:57.479Z,100215.53
2023-02-01T01:38:24.091Z,100211.19
2023-02-01T01:40:50.884Z,100198.19
2023-02-01T01:43:22.151Z,100196.44
2023-02-01T01:45:50.999Z,100203.38
2023-02-01T01:48:24.928Z,100199.03
2023-02-01T01:50:53.381Z,100193.78
2023-02-01T01:53:26.087Z,100193.78
2023-02-01T01:55:53.344Z,100192.09
2023-02-01T01:58:23.376Z,100186.88
2023-02-01T02:00:49.996Z,100207.75
2023-02-01T02:03:25.367Z,100201.66
2023-02-01T02:05:53.552Z,100185.97
2023-02-01T02:08:21.456Z,100198.16
2023-02-01T02:11:00.787Z,100194.66
2023-02-01T02:13:35.508Z,100194.66
2023-02-01T02:16:09.171Z,100195.53
2023-02-01T02:19:00.527Z,100199.91
2023-02-01T02:21:43.105Z,100192.94
2023-02-01T02:24:37.693Z,100182.50
2023-02-01T02:27:25.623Z,100180.72
2023-02-01T02:30:29.954Z,100177.25
2023-02-01T02:33:23.325Z,100170.28
2023-02-01T02:36:00.312Z,100165.91
2023-02-01T02:38:31.664Z,100169.41
2023-02-01T02:41:39.520Z,100163.28
2023-02-01T02:44:32.486Z,100166.78
2023-02-01T02:47:23.007Z,100166.75
2023-02-01T02:50:15.957Z,100167.63
2023-02-01T02:53:09.955Z,100165.00
2023-02-01T02:55:38.446Z,100159.78
2023-02-01T02:58:25.172Z,100164.91
2023-02-01T03:01:11.551Z,100159.78
2023-02-01T03:03:58.933Z,100157.13
2023-02-01T03:06:26.089Z,100151.09
2023-02-01T03:08:55.491Z,100141.53
2023-02-01T03:11:22.193Z,100142.38
2023-02-01T03:13:59.760Z,100137.16
2023-02-01T03:16:40.999Z,100137.19
2023-02-01T03:19:11.657Z,100130.22
2023-02-01T03:21:50.805Z,100122.41
2023-02-01T03:24:21.151Z,100127.59
2023-02-01T03:26:59.075Z,100119.81
2023-02-01T03:29:29.752Z,100128.50
2023-02-01T03:31:56.838Z,100111.16
2023-02-01T03:34:23.493Z,100108.53
2023-02-01T03:36:53.614Z,100111.16
2023-02-01T03:39:25.938Z,100099.88
2023-02-01T03:41:55.035Z,100099.88
2023-02-01T03:44:26.134Z,100093.78
2023-02-01T03:47:08.504Z,100102.47
2023-02-01T03:49:42.348Z,100097.22
2023-02-01T03:52:14.854Z,100094.63
2023-02-01T03:54:41.882Z,100093.78
2023-02-01T03:57:11.271Z,100092.03
2023-02-01T03:59:42.102Z,100090.28
2023-02-01T04:02:08.982Z,100091.19
2023-02-01T04:04:36.003Z,100090.28
2023-02-01T04:07:02.795Z,100093.75
2023-02-01T04:09:29.540Z,100080.72
2023-02-01T04:11:56.168Z,100081.56
2023-02-01T04:14:22.770Z,100069.41
2023-02-01T04:16:49.484Z,100079.84
2023-02-01T04:19:16.115Z,100077.22
2023-02-01T04:21:43.010Z,100072.91
2023-02-01T04:24:09.764Z,100078.09
2023-02-01T04:26:36.546Z,100065.06
2023-02-01T04:29:03.238Z,100074.59
2023-02-01T04:31:29.936Z,100066.81
2023-02-01T04:33:58.525Z,100056.38
2023-02-01T04:36:25.235Z,100071.13
2023-02-01T04:38:54.359Z,100061.59
2023-02-01T04:41:21.420Z,100061.59
2023-02-01T04:43:48.361Z,100061.59
2023-02-01T04:46:15.161Z,100062.44
2023-02-01T04:48:42.034Z,100065.06
2023-02-01T04:51:09.076Z,100056.38
2023-02-01T04:53:35.697Z,100061.59
2023-02-01T04:56:02.467Z,100058.13
2023-02-01T04:58:29.099Z,100060.72
2023-02-01T05:00:55.709Z,100053.75
2023-02-01T05:03:22.384Z,100042.50
2023-02-01T05:05:49.938Z,100042.47
2023-02-01T05:08:16.787Z,100043.38
2023-02-01T05:10:43.403Z,100050.28
2023-02-01T05:13:29.769Z,100047.69
2023-02-01T05:15:56.429Z,100057.25
2023-02-01T05:18:23.151Z,100049.44
2023-02-01T05:20:49.752Z,100055.50
2023-02-01T05:23:16.429Z,100060.72
2023-02-01T05:25:43.060Z,100056.41
2023-02-01T05:28:09.712Z,100060.75
2023-02-01T05:30:36.553Z,100049.44
2023-02-01T05:33:03.901Z,100040.75
2023-02-01T05:35:30.638Z,100039.00
2023-02-01T05:37:57.288Z,100035.50
2023-02-01T05:40:24.282Z,100034.66
2023-02-01T05:42:51.228Z,100044.22
2023-02-01T05:45:17.948Z,100047.69
2023-02-01T05:47:44.649Z,100052.91
2023-02-01T05:50:11.398Z,100042.50
2023-02-01T05:52:37.994Z,100039.00
2023-02-01T05:55:04.999Z,100036.38
2023-02-01T05:57:31.693Z,100038.97
2023-02-01T06:00:00.341Z,100031.19
2023-02-01T06:02:27.133Z,100019.00
2023-02-01T06:04:53.773Z,100021.59
2023-02-01T06:07:20.610Z,100023.34
2023-02-01T06:09:47.191Z,100025.06
2023-02-01T06:12:13.831Z,100025.94
2023-02-01T06:14:40.467Z,100019.84
2023-02-01T06:17:07.954Z,100018.97
2023-02-01T06:19:34.632Z,100010.28
2023-02-01T06:22:01.205Z,100027.69
2023-02-01T06:24:30.301Z,100026.81
2023-02-01T06:26:56.915Z,100021.59
2023-02-01T06:29:23.606Z,100024.22
2023-02-01T06:31:53.229Z,100013.75
2023-02-01T06:34:22.188Z,100009.44
2023-02-01T06:36:48.948Z,100011.19
2023-02-01T06:39:17.091Z,100022.47
2023-02-01T06:41:47.142Z,100018.13
2023-02-01T06:44:13.855Z,100025.09
2023-02-01T06:46:40.526Z,100017.25
2023-02-01T06:49:07.374Z,100018.97
2023-02-01T06:51:34.380Z,100011.16
2023-02-01T06:54:01.569Z,100005.94
2023-02-01T06:56:28.571Z,100015.53
2023-02-01T06:58:55.262Z,100011.16
2023-02-01T07:01:21.986Z,100028.56
2023-02-01T07:03:52.047Z,100029.44
2023-02-01T07:06:19.160Z,100022.47
2023-02-01T07:08:46.176Z,100020.72
2023-02-01T07:11:14.930Z,100019.00
2023-02-01T07:13:41.971Z,100015.53
2023-02-01T07:16:12.540Z,100004.19
2023-02-01T07:18:39.956Z,100004.22
2023-02-01T07:21:07.252Z,99996.38
2023-02-01T07:23:34.033Z,99992.88
2023-02-01T07:26:03.179Z,99995.50
2023-02-01T07:28:32.854Z,99992.03
2023-02-01T07:31:05.644Z,99999.88
2023-02-01T07:33:32.647Z,99996.41
2023-02-01T07:36:02.312Z,99999.00
2023-02-01T07:38:29.437Z,99995.50
2023-02-01T07:41:04.113Z,100001.59
2023-02-01T07:43:30.768Z,99992.91
2023-02-01T07:45:58.243Z,99993.78
2023-02-01T07:48:26.194Z,99986.81
2023-02-01T07:51:14.205Z,99985.09
2023-02-01T07:53:42.522Z,99988.56
2023-02-01T07:56:14.341Z,99982.47
2023-02-01T07:58:41.283Z,99984.22
2023-02-01T08:01:21.034Z,99983.34
2023-02-01T08:03:49.197Z,99982.47
2023-02-01T08:06:16.004Z,99974.63
2023-02-01T08:08:43.517Z,99978.09
2023-02-01T08:11:10.184Z,99985.97
2023-02-01T08:13:36.904Z,99988.56
2023-02-01T08:16:07.022Z,99979.88
2023-02-01T08:18:34.725Z,99980.72
2023-02-01T08:21:09.793Z,99992.03
2023-02-01T08:23:37.226Z,99983.31
2023-02-01T08:26:13.503Z,99990.28
2023-02-01T08:28:42.193Z,99990.28
2023-02-01T08:31:11.633Z,99983.31
2023-02-01T08:33:38.830Z,99987.69
2023-02-01T08:36:06.534Z,99996.38
2023-02-01T08:38:33.224Z,99991.16
2023-02-01T08:41:05.413Z,99998.97
2023-02-01T08:43:32.034Z,99997.22
2023-02-01T08:45:58.653Z,100002.47
2023-02-01T08:48:25.366Z,100001.56
2023-02-01T08:50:52.088Z,99991.16
2023-02-01T08:53:18.786Z,100004.19
2023-02-01T08:55:47.791Z,100004.22
2023-02-01T08:58:15.064Z,99994.63
2023-02-01T09:00:41.883Z,99999.00
2023-02-01T09:03:11.330Z,100006.84
2023-02-01T09:05:49.170Z,100010.28
2023-02-01T09:08:16.637Z,100012.91
2023-02-01T09:10:43.702Z,100015.50
2023-02-01T09:13:10.544Z,100011.16
2023-02-01T09:15:38.416Z,100018.13
2023-02-01T09:18:05.115Z,100014.63
2023-02-01T09:20:31.750Z,100015.50
2023-02-01T09:22:58.750Z,100014.63
2023-02-01T09:25:25.436Z,100016.38
2023-02-01T09:27:52.146Z,100008.56
2023-02-01T09:30:18.795Z,100021.59
2023-02-01T09:32:45.415Z,100018.13
2023-02-01T09:35:12.371Z,100024.19
2023-02-01T09:37:39.030Z,100019.00
2023-02-01T09:40:06.282Z,100012.91
2023-02-01T09:43:11.089Z,100025.94
2023-02-01T09:45:50.122Z,100030.28
2023-02-01T09:48:22.289Z,100038.13
2023-02-01T09:50:56.476Z,100032.91
2023-02-01T09:53:28.695Z,100039.00
2023-02-01T09:56:04.856Z,100045.94
2023-02-01T09:58:35.856Z,100045.06
2023-02-01T10:01:05.243Z,100042.44
2023-02-01T10:03:34.444Z,100045.97
2023-02-01T10:06:49.516Z,100041.56
2023-02-01T10:09:35.605Z,100049.41
2023-02-01T10:12:33.400Z,100056.41
2023-02-01T10:15:03.118Z,100052.88
2023-02-01T10:17:43.031Z,100053.78
2023-02-01T10:20:28.680Z,100052.91
2023-02-01T10:23:34.116Z,100049.41
2023-02-01T10:26:13.926Z,100045.03
2023-02-01T10:28:41.050Z,100036.34
2023-02-01T10:31:10.188Z,100045.91
2023-02-01T10:33:50.334Z,100041.56
2023-02-01T10:36:21.102Z,100028.47
2023-02-01T10:38:48.146Z,100047.63
2023-02-01T10:41:19.972Z,100033.66
2023-02-01T10:43:50.143Z,100043.25
2023-02-01T10:46:17.876Z,100033.66
2023-02-01T10:48:44.729Z,100038.00
2023-02-01T10:51:22.411Z,100030.16
2023-02-01T10:53:57.827Z,100028.38
2023-02-01T10:56:26.822Z,100027.50
2023-02-01T10:59:04.479Z,100029.22
2023-02-01T11:01:42.084Z,100007.41
2023-02-01T11:04:19.861Z,100008.25
2023-02-01T11:07:14.219Z,100003.81
2023-02-01T11:09:42.086Z,100009.91
2023-02-01T11:12:27.815Z,100002.88
2023-02-01T11:14:59.722Z,100007.25
2023-02-01T11:17:39.729Z,100001.94
2023-02-01T11:20:19.997Z,100006.31
2023-02-01T11:22:48.367Z,99994.03
2023-02-01T11:25:17.316Z,99995.78
2023-02-01T11:27:54.407Z,99992.28
2023-02-01T11:30:38.031Z,99990.56
2023-02-01T11:33:06.980Z,99980.97
2023-02-01T11:35:38.084Z,99977.47
2023-02-01T11:38:20.012Z,99986.16
2023-02-01T11:40:46.736Z,99976.53
2023-02-01T11:43:29.414Z,99978.38
2023-02-01T11:45:57.758Z,99973.06
2023-02-01T11:48:27.291Z,99978.25
2023-02-01T11:51:10.007Z,99982.53
2023-02-01T11:53:58.037Z,99973.81
2023-02-01T11:56:43.273Z,99968.44
2023-02-01T11:59:13.487Z,99981.56
2023-02-01T12:01:53.061Z,99974.59
2023-02-01T12:04:41.635Z,99980.69
2023-02-01T12:07:19.347Z,99969.41
2023-02-01T12:10:05.412Z,99975.66
2023-02-01T12:12:47.762Z,99982.56
2023-02-01T12:15:27.783Z,99976.53
2023-02-01T12:18:09.756Z,99974.78
2023-02-01T12:20:58.290Z,99972.16
2023-02-01T12:23:56.609Z,99967.88
2023-02-01T12:26:51.187Z,99977.53
2023-02-01T12:30:15.297Z,99974.97
2023-02-01T12:33:08.818Z,99971.47
2023-02-01T12:35:54.015Z,99973.13
2023-02-01T12:38:46.774Z,99972.25
2023-02-01T12:41:13.293Z,99955.66
2023-02-01T12:43:42.097Z,99947.81
2023-02-01T12:46:20.953Z,99937.41
2023-02-01T12:48:54.779Z,99933.94
2023-02-01T12:51:26.105Z,99934.94
2023-02-01T12:54:02.555Z,99940.06
2023-02-01T12:56:43.692Z,99940.03
2023-02-01T12:59:33.747Z,99934.81
2023-02-01T13:02:16.372Z,99942.56
2023-02-01T13:04:55.660Z,99940.00
2023-02-01T13:07:45.601Z,99933.06
2023-02-01T13:10:24.855Z,99933.03
2023-02-01T13:13:01.432Z,99941.78
2023-02-01T13:15:46.775Z,99946.16
2023-02-01T13:18:18.182Z,99940.03
2023-02-01T13:21:10.121Z,99941.78
2023-02-01T13:23:39.952Z,99933.13
2023-02-01T13:26:07.082Z,99927.88
2023-02-01T13:29:01.394Z,99921.81
2023-02-01T13:31:49.888Z,99918.34
2023-02-01T13:34:38.485Z,99909.72
2023-02-01T13:37:44.723Z,99905.41
2023-02-01T13:40:24.245Z,99906.28
2023-02-01T13:42:57.402Z,99894.13
2023-02-01T13:45:27.477Z,99899.38
2023-02-01T13:47:57.693Z,99894.13
2023-02-01T13:50:27.667Z,99899.38
2023-02-01T13:52:57.728Z,99898.56
2023-02-01T13:55:34.912Z,99897.69
2023-02-01T13:58:05.617Z,99893.28
2023-02-01T14:00:37.411Z,99888.00
2023-02-01T14:03:07.240Z,99893.25
2023-02-01T14:05:53.784Z,99883.81
2023-02-01T14:08:48.285Z,99882.16
2023-02-01T14:11:36.903Z,99884.81
2023-02-01T14:14:24.489Z,99893.47
2023-02-01T14:16:54.173Z,99911.78
2023-02-01T14:19:35.001Z,99910.00
2023-02-01T14:22:25.021Z,99894.53
2023-02-01T14:24:56.740Z,99904.16
2023-02-01T14:27:29.408Z,99905.91
2023-02-01T14:30:01.752Z,99919.88
2023-02-01T14:32:34.704Z,99910.31
2023-02-01T14:35:03.034Z,99894.66
2023-02-01T14:37:32.698Z,99889.44
2023-02-01T14:40:02.429Z,99886.84
2023-02-01T14:42:44.054Z,99884.22
2023-02-01T14:45:20.541Z,99884.22
2023-02-01T14:47:57.910Z,99880.78
2023-02-01T14:50:27.699Z,99859.94
2023-02-01T14:53:09.625Z,99874.66
2023-02-01T14:55:43.597Z,99877.28
2023-02-01T14:58:30.446Z,99883.34
2023-02-01T15:00:59.257Z,99865.97
2023-02-01T15:03:33.452Z,99868.56
2023-02-01T15:06:01.882Z,99860.75
2023-02-01T15:08:32.024Z,99853.81
2023-02-01T15:11:01.420Z,99848.59
2023-02-01T15:13:29.653Z,99843.38
2023-02-01T15:16:09.238Z,99858.16
2023-02-01T15:18:36.103Z,99846.84
2023-02-01T15:21:09.633Z,99848.59
2023-02-01T15:23:51.924Z,99845.13
2023-02-01T15:26:29.999Z,99838.16
2023-02-01T15:28:58.568Z,99830.38
2023-02-01T15:31:46.779Z,99826.03
2023-02-01T15:34:13.721Z,99823.41
2023-02-01T15:36:45.773Z,99815.59
2023-02-01T15:39:31.583Z,99812.13
2023-02-01T15:42:16.626Z,99810.41
2023-02-01T15:44:46.905Z,99810.41
2023-02-01T15:47:19.079Z,99804.34
2023-02-01T15:49:48.699Z,99813.00
2023-02-01T15:52:37.849Z,99819.09
2023-02-01T15:55:34.973Z,99813.84
2023-02-01T15:58:01.905Z,99819.94
2023-02-01T16:00:34.634Z,99819.03
2023-02-01T16:03:40.388Z,99828.66
2023-02-01T16:06:09.737Z,99816.44
2023-02-01T16:08:38.027Z,99816.44
2023-02-01T16:11:10.785Z,99819.03
2023-02-01T16:13:37.505Z,99820.78
2023-02-01T16:16:08.869Z,99820.75
2023-02-01T16:18:35.700Z,99827.69
2023-02-01T16:21:02.921Z,99818.09
2023-02-01T16:23:31.572Z,99825.91
2023-02-01T16:25:59.254Z,99826.78
2023-02-01T16:28:26.506Z,99817.19
2023-02-01T16:30:53.192Z,99831.09
2023-02-01T16:33:22.798Z,99836.34
2023-02-01T16:35:50.194Z,99842.47
2023-02-01T16:38:22.161Z,99825.03
2023-02-01T16:40:49.723Z,99832.88
2023-02-01T16:43:20.953Z,99829.38
2023-02-01T16:45:49.769Z,99838.06
2023-02-01T16:48:29.319Z,99843.31
2023-02-01T16:50:58.368Z,99854.59
2023-02-01T16:53:28.640Z,99856.34
2023-02-01T16:55:55.593Z,99858.91
2023-02-01T16:58:22.502Z,99865.00
2023-02-01T17:00:49.694Z,99859.81
2023-02-01T17:03:17.495Z,99851.09
2023-02-01T17:05:50.561Z,99858.91
2023-02-01T17:08:20.419Z,99871.13
2023-02-01T17:10:47.237Z,99871.13
2023-02-01T17:13:17.682Z,99881.53
2023-02-01T17:15:50.862Z,99890.22
2023-02-01T17:18:18.669Z,99881.50
2023-02-01T17:20:47.754Z,99892.84
2023-02-01T17:23:16.424Z,99889.38
2023-02-01T17:25:43.235Z,99899.84
2023-02-01T17:28:09.918Z,99897.22
2023-02-01T17:30:38.521Z,99897.22
2023-02-01T17:33:20.703Z,99903.34
2023-02-01T17:35:48.662Z,99910.31
2023-02-01T17:38:15.470Z,99913.78
2023-02-01T17:40:42.201Z,99914.63
2023-02-01T17:43:13.353Z,99919.84
2023-02-01T17:45:50.117Z,99919.00
2023-02-01T17:48:17.270Z,99925.06
2023-02-01T17:50:44.048Z,99912.91
2023-02-01T17:53:11.262Z,99916.38
2023-02-01T17:55:40.994Z,99919.88
2023-02-01T17:58:09.033Z,99922.47
2023-02-01T18:00:37.969Z,99927.69
2023-02-01T18:03:04.804Z,99925.09
2023-02-01T18:05:43.676Z,99919.84
2023-02-01T18:08:10.597Z,99925.06
2023-02-01T18:10:37.363Z,99925.94
2023-02-01T18:13:04.130Z,99924.22
2023-02-01T18:15:31.589Z,99934.63
2023-02-01T18:17:59.480Z,99919.00
2023-02-01T18:20:27.285Z,99917.25
2023-02-01T18:22:53.969Z,99928.53
2023-02-01T18:25:22.429Z,99921.56
2023-02-01T18:27:50.583Z,99917.25
2023-02-01T18:30:17.572Z,99905.94
2023-02-01T18:32:45.161Z,99922.44
2023-02-01T18:35:22.288Z,99925.94
2023-02-01T18:37:50.128Z,99925.06
2023-02-01T18:40:20.057Z,99927.66
2023-02-01T18:42:47.396Z,99922.44
2023-02-01T18:45:39.787Z,99925.94
2023-02-01T18:48:12.048Z,99922.44
2023-02-01T18:50:40.940Z,99933.75
2023-02-01T18:53:15.384Z,99937.25
2023-02-01T18:55:54.775Z,99934.63
2023-02-01T18:58:26.260Z,99931.13
2023-02-01T19:00:54.416Z,99929.41
2023-02-01T19:03:22.756Z,99931.13
2023-02-01T19:08:51.330Z,99938.09
2023-02-01T19:11:17.907Z,99939.84
2023-02-01T19:13:44.867Z,99941.56
2023-02-01T19:16:13.426Z,99937.25
2023-02-01T19:18:45.403Z,99936.38
2023-02-01T19:21:13.471Z,99929.41
2023-02-01T19:23:41.296Z,99929.41
2023-02-01T19:26:16.100Z,99937.25
2023-02-01T19:28:48.083Z,99945.09
2023-02-01T19:31:16.224Z,99940.72
2023-02-01T19:33:43.070Z,99946.81
2023-02-01T19:36:10.982Z,99944.22
2023-02-01T19:38:38.408Z,99945.06
2023-02-01T19:41:05.531Z,99949.41
2023-02-01T19:43:33.014Z,99940.69
2023-02-01T19:46:00.884Z,99949.41
2023-02-01T19:48:29.644Z,99951.16
2023-02-01T19:50:59.036Z,99951.16
2023-02-01T19:53:27.790Z,99947.66
2023-02-01T19:55:56.707Z,99950.25
2023-02-01T19:58:24.465Z,99950.28
2023-02-01T20:00:54.450Z,99957.25
2023-02-01T20:03:21.604Z,99945.06
2023-02-01T20:05:52.564Z,99941.56
2023-02-01T20:08:19.702Z,99930.25
2023-02-01T20:10:46.383Z,99931.13
2023-02-01T20:13:13.649Z,99948.53
2023-02-01T20:15:42.079Z,99947.63
2023-02-01T20:18:10.495Z,99938.09
2023-02-01T20:20:37.234Z,99942.44
2023-02-01T20:23:04.130Z,99945.94
2023-02-01T20:25:31.681Z,99950.25
2023-02-01T20:27:58.329Z,99940.69
2023-02-01T20:30:25.072Z,99942.44
2023-02-01T20:32:52.163Z,99945.91
2023-02-01T20:35:19.137Z,99941.59
2023-02-01T20:37:45.921Z,99952.03
2023-02-01T20:40:12.933Z,99948.53
2023-02-01T20:42:41.213Z,99943.31
2023-02-01T20:45:08.753Z,99944.19
2023-02-01T20:47:36.254Z,99938.97
2023-02-01T20:50:03.215Z,99932.88
2023-02-01T20:52:29.877Z,99945.94
2023-02-01T20:54:56.509Z,99951.16
2023-02-01T20:57:23.168Z,99952.88
2023-02-01T20:59:54.172Z,99943.34
2023-02-01T21:02:20.885Z,99946.81
2023-02-01T21:04:50.035Z,99950.31
2023-02-01T21:07:16.717Z,99939.88
2023-02-01T21:09:43.360Z,99952.91
2023-02-01T21:12:10.234Z,99952.03
2023-02-01T21:14:36.888Z,99954.63
2023-02-01T21:17:03.599Z,99947.69
2023-02-01T21:19:42.747Z,99954.66
2023-02-01T21:22:16.252Z,99956.38
2023-02-01T21:24:43.268Z,99964.19
2023-02-01T21:27:10.371Z,99957.22
2023-02-01T21:29:41.412Z,99948.56
2023-02-01T21:32:09.379Z,99943.34
2023-02-01T21:34:36.251Z,99940.72
2023-02-01T21:37:03.136Z,99947.69
2023-02-01T21:39:29.929Z,99952.91
2023-02-01T21:42:14.262Z,99955.50
2023-02-01T21:44:41.597Z,99953.75
2023-02-01T21:47:10.237Z,99950.31
2023-02-01T21:49:39.784Z,99957.25
2023-02-01T21:52:12.445Z,99949.38
2023-02-01T21:54:39.312Z,99936.34
2023-02-01T21:57:12.810Z,99954.63
2023-02-01T21:59:43.637Z,99951.16
2023-02-01T22:02:18.338Z,99932.84
2023-02-01T22:04:45.341Z,99934.56
2023-02-01T22:07:13.484Z,99936.31
2023-02-01T22:09:40.364Z,99935.44
2023-02-01T22:12:12.182Z,99928.47
2023-02-01T22:14:39.083Z,99928.50
2023-02-01T22:17:06.116Z,99926.75
2023-02-01T22:19:32.768Z,99937.19
2023-02-01T22:21:59.593Z,99934.56
2023-02-01T22:24:28.901Z,99914.53
2023-02-01T22:26:55.757Z,99929.31
2023-02-01T22:29:40.876Z,99932.81
2023-02-01T22:32:08.630Z,99926.72
2023-02-01T22:34:35.615Z,99918.00
2023-02-01T22:37:05.733Z,99908.44
2023-02-01T22:39:32.327Z,99912.78
2023-02-01T22:42:03.543Z,99905.84
2023-02-01T22:44:30.565Z,99899.72
2023-02-01T22:46:57.553Z,99895.38
2023-02-01T22:49:25.336Z,99901.47
2023-02-01T22:51:52.651Z,99891.03
2023-02-01T22:54:24.827Z,99898.00
2023-02-01T22:56:51.487Z,99900.63
2023-02-01T22:59:18.231Z,99898.88
2023-02-01T23:01:44.888Z,99895.38
2023-02-01T23:04:13.968Z,99877.09
2023-02-01T23:06:40.980Z,99874.47
2023-02-01T23:09:14.023Z,99875.34
2023-02-01T23:11:44.433Z,99879.69
2023-02-01T23:14:12.431Z,99871.88
2023-02-01T23:16:41.618Z,99860.53
2023-02-01T23:19:10.777Z,99857.94
2023-02-01T23:21:37.714Z,99857.94
2023-02-01T23:24:07.363Z,99857.03
2023-02-01T23:26:36.428Z,99852.69
2023-02-01T23:29:04.040Z,99844.00
2023-02-01T23:31:34.984Z,99844.84
2023-02-01T23:34:02.860Z,99852.66
2023-02-01T23:36:29.585Z,99844.84
2023-02-01T23:38:56.267Z,99847.44
2023-02-01T23:41:23.877Z,99846.59
2023-02-01T23:43:59.601Z,99829.19
2023-02-01T23:46:47.545Z,99827.47
2023-02-01T23:49:18.662Z,99837.00
2023-02-01T23:51:48.131Z,99834.41
2023-02-01T23:54:14.783Z,99834.41
2023-02-01T23:56:47.548Z,99823.09
2023-02-01T23:59:19.399Z,99823.94
